sensor_id;sensor_type;location;lat;lon;timestamp;pressure;altitude;pressure_sealevel;temperature;humidity
40954;BME280;26686;50.130;8.710;2023-05-20T00:01:39;100526.81;;;15.67;49.88
40954;BME280;26686;50.130;8.710;2023-05-20T00:06:40;100538.09;;;15.70;50.67
40954;BME280;26686;50.130;8.710;2023-05-20T00:11:42;100541.00;;;15.77;50.79
40954;BME280;26686;50.130;8.710;2023-05-20T00:16:45;100528.53;;;15.58;51.59
40954;BME280;26686;50.130;8.710;2023-05-20T00:21:46;100529.75;;;15.73;51.26
40954;BME280;26686;50.130;8.710;2023-05-20T00:26:48;100524.63;;;15.80;51.31
40954;BME280;26686;50.130;8.710;2023-05-20T00:31:49;100529.69;;;15.83;51.79
40954;BME280;26686;50.130;8.710;2023-05-20T00:36:51;100486.63;;;15.57;51.57
40954;BME280;26686;50.130;8.710;2023-05-20T00:41:53;100522.94;;;15.79;51.95
40954;BME280;26686;50.130;8.710;2023-05-20T00:46:55;100520.25;;;15.51;52.49
40954;BME280;26686;50.130;8.710;2023-05-20T00:51:57;100520.06;;;15.35;53.85
40954;BME280;26686;50.130;8.710;2023-05-20T00:56:59;100513.50;;;15.47;53.33
40954;BME280;26686;50.130;8.710;2023-05-20T01:02:03;100517.19;;;15.46;53.53
40954;BME280;26686;50.130;8.710;2023-05-20T01:07:05;100500.88;;;15.30;54.31
40954;BME280;26686;50.130;8.710;2023-05-20T01:12:17;100509.56;;;15.42;54.22
40954;BME280;26686;50.130;8.710;2023-05-20T01:17:22;100468.75;;;15.20;53.83
40954;BME280;26686;50.130;8.710;2023-05-20T01:22:28;100505.09;;;15.32;54.85
40954;BME280;26686;50.130;8.710;2023-05-20T01:27:30;100491.75;;;15.23;55.30
40954;BME280;26686;50.130;8.710;2023-05-20T01:32:35;100492.84;;;15.30;54.72
40954;BME280;26686;50.130;8.710;2023-05-20T01:37:39;100489.34;;;15.19;55.28
40954;BME280;26686;50.130;8.710;2023-05-20T01:42:42;100494.50;;;15.31;55.25
40954;BME280;26686;50.130;8.710;2023-05-20T01:47:45;100479.53;;;15.10;55.54
40954;BME280;26686;50.130;8.710;2023-05-20T01:52:47;100482.53;;;15.25;55.91
40954;BME280;26686;50.130;8.710;2023-05-20T01:57:48;100478.63;;;15.19;56.23
40954;BME280;26686;50.130;8.710;2023-05-20T02:02:50;100471.47;;;15.10;55.73
40954;BME280;26686;50.130;8.710;2023-05-20T02:07:52;100472.63;;;14.98;57.03
40954;BME280;26686;50.130;8.710;2023-05-20T02:12:53;100455.53;;;15.09;56.38
40954;BME280;26686;50.130;8.710;2023-05-20T02:17:55;100458.63;;;15.04;56.98
40954;BME280;26686;50.130;8.710;2023-05-20T02:22:58;100475.84;;;15.11;57.06
40954;BME280;26686;50.130;8.710;2023-05-20T02:28:00;100465.41;;;15.08;57.08
40954;BME280;26686;50.130;8.710;2023-05-20T02:33:01;100465.34;;;14.90;57.68
40954;BME280;26686;50.130;8.710;2023-05-20T02:38:03;100470.53;;;14.92;57.62
40954;BME280;26686;50.130;8.710;2023-05-20T02:43:05;100474.78;;;14.84;57.87
40954;BME280;26686;50.130;8.710;2023-05-20T02:48:06;100477.16;;;14.97;57.73
40954;BME280;26686;50.130;8.710;2023-05-20T02:53:08;100473.94;;;14.94;58.71
40954;BME280;26686;50.130;8.710;2023-05-20T02:58:09;100464.31;;;15.01;58.39
40954;BME280;26686;50.130;8.710;2023-05-20T03:03:13;100465.41;;;15.08;57.89
40954;BME280;26686;50.130;8.710;2023-05-20T03:08:15;100469.94;;;15.08;58.13
40954;BME280;26686;50.130;8.710;2023-05-20T03:13:16;100461.75;;;15.09;58.52
40954;BME280;26686;50.130;8.710;2023-05-20T03:18:18;100449.03;;;15.11;58.65
40954;BME280;26686;50.130;8.710;2023-05-20T03:23:19;100448.06;;;15.02;58.58
40954;BME280;26686;50.130;8.710;2023-05-20T03:28:21;100442.84;;;15.01;59.12
40954;BME280;26686;50.130;8.710;2023-05-20T03:33:23;100426.25;;;14.88;59.47
40954;BME280;26686;50.130;8.710;2023-05-20T03:38:26;100422.81;;;14.77;60.35
40954;BME280;26686;50.130;8.710;2023-05-20T03:43:28;100415.31;;;14.71;60.56
40954;BME280;26686;50.130;8.710;2023-05-20T03:48:30;100432.88;;;14.93;60.49
40954;BME280;26686;50.130;8.710;2023-05-20T03:53:32;100431.91;;;14.84;60.85
40954;BME280;26686;50.130;8.710;2023-05-20T03:58:34;100430.75;;;14.97;59.98
40954;BME280;26686;50.130;8.710;2023-05-20T04:03:35;100452.16;;;15.07;60.48
40954;BME280;26686;50.130;8.710;2023-05-20T04:08:37;100454.44;;;15.01;61.12
40954;BME280;26686;50.130;8.710;2023-05-20T04:13:38;100435.25;;;14.96;60.43
40954;BME280;26686;50.130;8.710;2023-05-20T04:18:40;100438.66;;;14.98;61.40
40954;BME280;26686;50.130;8.710;2023-05-20T04:23:42;100441.06;;;14.92;61.84
40954;BME280;26686;50.130;8.710;2023-05-20T04:28:43;100437.78;;;14.98;61.06
40954;BME280;26686;50.130;8.710;2023-05-20T04:33:45;100448.06;;;15.02;61.21
40954;BME280;26686;50.130;8.710;2023-05-20T04:38:47;100440.03;;;15.02;61.37
40954;BME280;26686;50.130;8.710;2023-05-20T04:43:49;100422.00;;;14.95;61.00
40954;BME280;26686;50.130;8.710;2023-05-20T04:48:51;100443.66;;;15.11;61.47
40954;BME280;26686;50.130;8.710;2023-05-20T04:53:54;100439.72;;;15.06;61.56
40954;BME280;26686;50.130;8.710;2023-05-20T04:58:55;100440.00;;;15.12;61.33
40954;BME280;26686;50.130;8.710;2023-05-20T05:03:57;100448.13;;;15.20;61.67
40954;BME280;26686;50.130;8.710;2023-05-20T05:08:58;100433.53;;;15.33;61.32
40954;BME280;26686;50.130;8.710;2023-05-20T05:14:00;100439.28;;;15.38;61.21
40954;BME280;26686;50.130;8.710;2023-05-20T05:19:01;100434.31;;;15.43;60.72
40954;BME280;26686;50.130;8.710;2023-05-20T05:24:03;100426.25;;;15.43;61.06
40954;BME280;26686;50.130;8.710;2023-05-20T05:29:04;100432.41;;;15.53;61.02
40954;BME280;26686;50.130;8.710;2023-05-20T05:34:06;100423.38;;;15.54;61.44
40954;BME280;26686;50.130;8.710;2023-05-20T05:39:08;100424.38;;;15.71;61.22
40954;BME280;26686;50.130;8.710;2023-05-20T05:44:09;100423.78;;;15.78;61.46
40954;BME280;26686;50.130;8.710;2023-05-20T05:49:11;100410.13;;;15.53;61.61
40954;BME280;26686;50.130;8.710;2023-05-20T05:54:12;100409.75;;;15.66;62.10
40954;BME280;26686;50.130;8.710;2023-05-20T05:59:14;100414.34;;;15.73;61.19
40954;BME280;26686;50.130;8.710;2023-05-20T06:04:16;100396.03;;;15.69;60.90
40954;BME280;26686;50.130;8.710;2023-05-20T06:09:18;100421.41;;;15.93;61.01
40954;BME280;26686;50.130;8.710;2023-05-20T06:14:19;100430.22;;;16.03;60.80
40954;BME280;26686;50.130;8.710;2023-05-20T06:19:21;100425.56;;;16.05;60.63
40954;BME280;26686;50.130;8.710;2023-05-20T06:24:23;100417.19;;;16.08;60.72
40954;BME280;26686;50.130;8.710;2023-05-20T06:29:25;100415.66;;;16.05;61.43
40954;BME280;26686;50.130;8.710;2023-05-20T06:34:26;100412.81;;;16.07;60.43
40954;BME280;26686;50.130;8.710;2023-05-20T06:39:28;100422.31;;;16.19;60.97
40954;BME280;26686;50.130;8.710;2023-05-20T06:44:30;100413.94;;;16.22;60.82
40954;BME280;26686;50.130;8.710;2023-05-20T06:49:31;100411.47;;;16.29;60.73
40954;BME280;26686;50.130;8.710;2023-05-20T06:54:33;100411.25;;;16.22;60.63
40954;BME280;26686;50.130;8.710;2023-05-20T06:59:40;100408.78;;;16.29;60.88
40954;BME280;26686;50.130;8.710;2023-05-20T07:04:42;100402.94;;;16.34;60.73
40954;BME280;26686;50.130;8.710;2023-05-20T07:09:44;100407.94;;;16.29;60.80
40954;BME280;26686;50.130;8.710;2023-05-20T07:14:46;100406.22;;;16.46;60.33
40954;BME280;26686;50.130;8.710;2023-05-20T07:19:48;100392.34;;;16.58;60.13
40954;BME280;26686;50.130;8.710;2023-05-20T07:24:49;100364.72;;;16.40;60.35
40954;BME280;26686;50.130;8.710;2023-05-20T07:29:51;100392.44;;;16.75;60.09
40954;BME280;26686;50.130;8.710;2023-05-20T07:34:52;100397.88;;;16.83;60.17
40954;BME280;26686;50.130;8.710;2023-05-20T07:39:54;100385.19;;;16.93;59.80
40954;BME280;26686;50.130;8.710;2023-05-20T07:44:55;100383.56;;;17.17;59.42
40954;BME280;26686;50.130;8.710;2023-05-20T07:49:57;100382.09;;;17.39;59.04
40954;BME280;26686;50.130;8.710;2023-05-20T07:54:58;100357.59;;;17.51;58.87
40954;BME280;26686;50.130;8.710;2023-05-20T08:00:00;100351.69;;;17.63;58.47
40954;BME280;26686;50.130;8.710;2023-05-20T08:05:01;100361.63;;;17.88;58.41
40954;BME280;26686;50.130;8.710;2023-05-20T08:10:03;100368.56;;;18.07;57.96
40954;BME280;26686;50.130;8.710;2023-05-20T08:15:06;100367.19;;;18.19;57.83
40954;BME280;26686;50.130;8.710;2023-05-20T08:20:08;100364.47;;;18.35;57.43
40954;BME280;26686;50.130;8.710;2023-05-20T08:25:11;100355.69;;;18.42;56.90
40954;BME280;26686;50.130;8.710;2023-05-20T08:30:12;100357.03;;;18.54;57.13
40954;BME280;26686;50.130;8.710;2023-05-20T08:35:14;100355.72;;;18.89;55.96
40954;BME280;26686;50.130;8.710;2023-05-20T08:40:15;100339.16;;;19.32;55.98
40954;BME280;26686;50.130;8.710;2023-05-20T08:45:18;100337.19;;;19.49;55.17
40954;BME280;26686;50.130;8.710;2023-05-20T08:50:21;100335.03;;;19.45;54.62
40954;BME280;26686;50.130;8.710;2023-05-20T08:55:35;100337.41;;;19.39;54.35
40954;BME280;26686;50.130;8.710;2023-05-20T09:00:37;100344.38;;;19.34;54.68
40954;BME280;26686;50.130;8.710;2023-05-20T09:05:39;100346.38;;;19.40;54.67
40954;BME280;26686;50.130;8.710;2023-05-20T09:10:43;100333.41;;;19.35;53.81
40954;BME280;26686;50.130;8.710;2023-05-20T09:15:45;100343.78;;;19.47;54.46
40954;BME280;26686;50.130;8.710;2023-05-20T09:20:49;100340.06;;;19.48;54.15
40954;BME280;26686;50.130;8.710;2023-05-20T09:25:51;100337.19;;;19.49;54.32
40954;BME280;26686;50.130;8.710;2023-05-20T09:30:57;100328.41;;;19.70;54.02
40954;BME280;26686;50.130;8.710;2023-05-20T09:36:04;100335.09;;;20.21;54.78
40954;BME280;26686;50.130;8.710;2023-05-20T09:41:11;100323.91;;;20.54;52.04
40954;BME280;26686;50.130;8.710;2023-05-20T09:46:14;100326.72;;;20.75;51.85
40954;BME280;26686;50.130;8.710;2023-05-20T09:51:17;100322.66;;;21.23;50.62
40954;BME280;26686;50.130;8.710;2023-05-20T09:56:19;100331.47;;;21.46;49.49
40954;BME280;26686;50.130;8.710;2023-05-20T10:01:22;100325.84;;;21.48;49.85
40954;BME280;26686;50.130;8.710;2023-05-20T10:06:55;100316.75;;;21.34;49.43
40954;BME280;26686;50.130;8.710;2023-05-20T10:22:56;100311.00;;;21.22;49.12
40954;BME280;26686;50.130;8.710;2023-05-20T10:28:07;100316.56;;;21.35;48.89
40954;BME280;26686;50.130;8.710;2023-05-20T10:33:16;100315.25;;;21.68;48.67
40954;BME280;26686;50.130;8.710;2023-05-20T10:38:18;100287.09;;;21.91;48.62
40954;BME280;26686;50.130;8.710;2023-05-20T10:43:26;100288.25;;;22.38;47.32
40954;BME280;26686;50.130;8.710;2023-05-20T10:48:32;100291.50;;;22.62;45.95
40954;BME280;26686;50.130;8.710;2023-05-20T10:53:39;100283.81;;;22.72;46.38
40954;BME280;26686;50.130;8.710;2023-05-20T10:58:43;100270.50;;;22.90;45.67
40954;BME280;26686;50.130;8.710;2023-05-20T11:03:45;100270.31;;;22.92;45.02
40954;BME280;26686;50.130;8.710;2023-05-20T11:08:49;100273.50;;;23.09;44.43
40954;BME280;26686;50.130;8.710;2023-05-20T11:13:51;100275.53;;;22.93;45.55
40954;BME280;26686;50.130;8.710;2023-05-20T11:18:53;100269.38;;;23.20;44.87
40954;BME280;26686;50.130;8.710;2023-05-20T11:23:55;100270.13;;;23.00;44.36
40954;BME280;26686;50.130;8.710;2023-05-20T11:28:56;100272.13;;;23.33;43.95
40954;BME280;26686;50.130;8.710;2023-05-20T11:34:00;100264.38;;;23.57;43.14
40954;BME280;26686;50.130;8.710;2023-05-20T11:39:02;100264.78;;;23.54;43.42
40954;BME280;26686;50.130;8.710;2023-05-20T11:44:09;100258.94;;;23.83;43.13
40954;BME280;26686;50.130;8.710;2023-05-20T11:49:12;100244.94;;;24.00;42.20
40954;BME280;26686;50.130;8.710;2023-05-20T11:54:14;100241.81;;;23.83;43.01
40954;BME280;26686;50.130;8.710;2023-05-20T11:59:15;100246.22;;;23.91;42.44
40954;BME280;26686;50.130;8.710;2023-05-20T12:04:17;100240.97;;;24.03;42.22
40954;BME280;26686;50.130;8.710;2023-05-20T12:09:19;100228.63;;;23.80;42.54
40954;BME280;26686;50.130;8.710;2023-05-20T12:14:21;100238.03;;;23.97;42.25
40954;BME280;26686;50.130;8.710;2023-05-20T12:19:22;100224.66;;;24.03;42.38
40954;BME280;26686;50.130;8.710;2023-05-20T12:24:24;100223.41;;;23.98;42.59
40954;BME280;26686;50.130;8.710;2023-05-20T12:29:25;100207.94;;;23.99;43.12
40954;BME280;26686;50.130;8.710;2023-05-20T12:34:27;100221.75;;;23.84;43.08
40954;BME280;26686;50.130;8.710;2023-05-20T12:39:28;100209.19;;;23.83;42.66
40954;BME280;26686;50.130;8.710;2023-05-20T12:44:30;100206.03;;;23.93;43.30
40954;BME280;26686;50.130;8.710;2023-05-20T12:49:31;100211.28;;;23.81;43.06
40954;BME280;26686;50.130;8.710;2023-05-20T12:54:33;100211.50;;;23.73;43.50
40954;BME280;26686;50.130;8.710;2023-05-20T12:59:34;100191.88;;;23.57;43.68
40954;BME280;26686;50.130;8.710;2023-05-20T13:04:36;100186.25;;;23.45;44.21
40954;BME280;26686;50.130;8.710;2023-05-20T13:09:38;100187.09;;;23.53;44.08
40954;BME280;26686;50.130;8.710;2023-05-20T13:14:39;100193.75;;;23.63;44.14
40954;BME280;26686;50.130;8.710;2023-05-20T13:19:41;100187.91;;;23.67;44.03
40954;BME280;26686;50.130;8.710;2023-05-20T13:24:44;100185.56;;;23.70;43.74
40954;BME280;26686;50.130;8.710;2023-05-20T13:29:46;100187.44;;;23.83;43.15
40954;BME280;26686;50.130;8.710;2023-05-20T13:34:47;100179.06;;;23.78;43.38
40954;BME280;26686;50.130;8.710;2023-05-20T13:39:49;100180.34;;;23.75;43.99
40954;BME280;26686;50.130;8.710;2023-05-20T13:44:51;100173.63;;;23.78;44.51
40954;BME280;26686;50.130;8.710;2023-05-20T13:49:53;100168.28;;;23.51;44.05
40954;BME280;26686;50.130;8.710;2023-05-20T13:54:54;100164.53;;;23.45;44.59
40954;BME280;26686;50.130;8.710;2023-05-20T13:59:56;100153.22;;;23.42;44.46
40954;BME280;26686;50.130;8.710;2023-05-20T14:04:57;100156.16;;;23.34;44.65
40954;BME280;26686;50.130;8.710;2023-05-20T14:09:59;100147.59;;;23.23;44.66
40954;BME280;26686;50.130;8.710;2023-05-20T14:15:00;100149.44;;;23.03;45.18
40954;BME280;26686;50.130;8.710;2023-05-20T14:20:02;100136.06;;;23.01;45.45
40954;BME280;26686;50.130;8.710;2023-05-20T14:25:04;100153.22;;;23.08;45.71
40954;BME280;26686;50.130;8.710;2023-05-20T14:30:06;100130.44;;;22.96;46.08
40954;BME280;26686;50.130;8.710;2023-05-20T14:35:08;100135.25;;;23.07;45.66
40954;BME280;26686;50.130;8.710;2023-05-20T14:40:10;100129.84;;;23.14;45.61
40954;BME280;26686;50.130;8.710;2023-05-20T14:45:12;100125.47;;;23.20;45.96
40954;BME280;26686;50.130;8.710;2023-05-20T14:50:13;100109.81;;;23.28;45.62
40954;BME280;26686;50.130;8.710;2023-05-20T14:55:15;100073.06;;;22.92;45.66
40954;BME280;26686;50.130;8.710;2023-05-20T15:00:17;100119.38;;;23.04;46.17
40954;BME280;26686;50.130;8.710;2023-05-20T15:05:19;100098.06;;;22.88;46.35
40954;BME280;26686;50.130;8.710;2023-05-20T15:10:21;100119.59;;;22.76;46.71
40954;BME280;26686;50.130;8.710;2023-05-20T15:15:22;100109.78;;;22.95;46.69
40954;BME280;26686;50.130;8.710;2023-05-20T15:20:24;100111.84;;;23.00;46.47
40954;BME280;26686;50.130;8.710;2023-05-20T15:25:25;100099.78;;;22.95;46.43
40954;BME280;26686;50.130;8.710;2023-05-20T15:30:27;100093.72;;;22.87;46.46
40954;BME280;26686;50.130;8.710;2023-05-20T15:35:28;100082.41;;;22.70;46.66
40954;BME280;26686;50.130;8.710;2023-05-20T15:40:30;100101.81;;;22.67;47.50
40954;BME280;26686;50.130;8.710;2023-05-20T15:45:32;100097.22;;;22.60;47.36
40954;BME280;26686;50.130;8.710;2023-05-20T15:50:34;100088.66;;;22.37;47.79
40954;BME280;26686;50.130;8.710;2023-05-20T15:55:37;100093.84;;;22.52;47.47
40954;BME280;26686;50.130;8.710;2023-05-20T16:00:38;100060.91;;;22.48;47.84
40954;BME280;26686;50.130;8.710;2023-05-20T16:05:40;100082.22;;;22.58;47.51
40954;BME280;26686;50.130;8.710;2023-05-20T16:10:42;100091.28;;;22.23;48.23
40954;BME280;26686;50.130;8.710;2023-05-20T16:15:44;100097.94;;;22.21;47.99
40954;BME280;26686;50.130;8.710;2023-05-20T16:20:46;100110.84;;;22.12;47.83
40954;BME280;26686;50.130;8.710;2023-05-20T16:25:47;100092.47;;;22.07;48.10
40954;BME280;26686;50.130;8.710;2023-05-20T16:30:49;100109.09;;;21.98;48.44
40954;BME280;26686;50.130;8.710;2023-05-20T16:35:51;100095.94;;;21.95;48.55
40954;BME280;26686;50.130;8.710;2023-05-20T16:40:52;100091.53;;;21.80;48.73
40954;BME280;26686;50.130;8.710;2023-05-20T16:45:54;100086.03;;;21.67;49.33
40954;BME280;26686;50.130;8.710;2023-05-20T16:50:56;100090.78;;;21.58;49.69
40954;BME280;26686;50.130;8.710;2023-05-20T16:55:58;100090.97;;;21.57;49.57
40954;BME280;26686;50.130;8.710;2023-05-20T17:01:00;100092.41;;;21.52;49.95
40954;BME280;26686;50.130;8.710;2023-05-20T17:06:02;100109.72;;;21.51;50.25
40954;BME280;26686;50.130;8.710;2023-05-20T17:11:03;100108.53;;;21.39;50.50
40954;BME280;26686;50.130;8.710;2023-05-20T17:16:06;100107.47;;;21.33;50.81
40954;BME280;26686;50.130;8.710;2023-05-20T17:21:10;100110.56;;;21.02;51.33
40954;BME280;26686;50.130;8.710;2023-05-20T17:26:15;100135.13;;;21.00;51.79
40954;BME280;26686;50.130;8.710;2023-05-20T17:31:17;100134.41;;;20.92;52.13
40954;BME280;26686;50.130;8.710;2023-05-20T17:36:18;100118.78;;;20.87;52.55
40954;BME280;26686;50.130;8.710;2023-05-20T17:41:22;100122.13;;;20.68;53.06
40954;BME280;26686;50.130;8.710;2023-05-20T17:46:24;100114.28;;;20.58;53.42
40954;BME280;26686;50.130;8.710;2023-05-20T17:51:25;100126.47;;;20.69;53.44
40954;BME280;26686;50.130;8.710;2023-05-20T17:56:27;100131.06;;;20.68;53.61
40954;BME280;26686;50.130;8.710;2023-05-20T18:01:29;100134.59;;;20.69;53.74
40954;BME280;26686;50.130;8.710;2023-05-20T18:06:31;100128.72;;;20.43;54.38
40954;BME280;26686;50.130;8.710;2023-05-20T18:11:35;100144.94;;;20.43;54.99
40954;BME280;26686;50.130;8.710;2023-05-20T18:16:36;100141.13;;;20.38;55.03
40954;BME280;26686;50.130;8.710;2023-05-20T18:21:38;100146.03;;;20.34;55.20
40954;BME280;26686;50.130;8.710;2023-05-20T18:26:40;100141.97;;;20.23;55.84
40954;BME280;26686;50.130;8.710;2023-05-20T18:31:42;100124.13;;;20.07;56.12
40954;BME280;26686;50.130;8.710;2023-05-20T18:36:44;100133.59;;;20.18;55.94
40954;BME280;26686;50.130;8.710;2023-05-20T18:41:46;100141.63;;;19.96;56.94
40954;BME280;26686;50.130;8.710;2023-05-20T18:46:48;100148.47;;;19.92;57.07
40954;BME280;26686;50.130;8.710;2023-05-20T18:51:49;100135.91;;;19.85;57.31
40954;BME280;26686;50.130;8.710;2023-05-20T18:56:51;100143.69;;;19.80;57.40
40954;BME280;26686;50.130;8.710;2023-05-20T19:01:52;100134.25;;;19.75;57.84
40954;BME280;26686;50.130;8.710;2023-05-20T19:06:54;100136.63;;;19.78;57.55
40954;BME280;26686;50.130;8.710;2023-05-20T19:11:56;100133.72;;;19.65;58.03
40954;BME280;26686;50.130;8.710;2023-05-20T19:16:59;100138.00;;;19.59;58.55
40954;BME280;26686;50.130;8.710;2023-05-20T19:22:01;100130.91;;;19.58;58.42
40954;BME280;26686;50.130;8.710;2023-05-20T19:27:03;100140.59;;;19.53;58.43
40954;BME280;26686;50.130;8.710;2023-05-20T19:32:05;100136.28;;;19.29;59.01
40954;BME280;26686;50.130;8.710;2023-05-20T19:37:07;100145.22;;;19.29;59.59
40954;BME280;26686;50.130;8.710;2023-05-20T19:42:08;100134.13;;;19.24;59.36
40954;BME280;26686;50.130;8.710;2023-05-20T19:47:09;100143.59;;;19.20;59.76
40954;BME280;26686;50.130;8.710;2023-05-20T19:52:11;100152.16;;;19.08;60.21
40954;BME280;26686;50.130;8.710;2023-05-20T19:57:13;100149.69;;;18.99;60.39
40954;BME280;26686;50.130;8.710;2023-05-20T20:02:15;100147.34;;;18.96;60.83
40954;BME280;26686;50.130;8.710;2023-05-20T20:07:16;100147.25;;;18.89;62.48
40954;BME280;26686;50.130;8.710;2023-05-20T20:12:18;100150.22;;;18.94;61.88
40954;BME280;26686;50.130;8.710;2023-05-20T20:17:19;100150.72;;;18.98;61.39
40954;BME280;26686;50.130;8.710;2023-05-20T20:22:23;100150.19;;;19.02;61.50
40954;BME280;26686;50.130;8.710;2023-05-20T20:27:25;100138.78;;;18.92;61.83
40954;BME280;26686;50.130;8.710;2023-05-20T20:32:26;100148.84;;;18.98;61.54
40954;BME280;26686;50.130;8.710;2023-05-20T20:37:28;100135.81;;;18.79;62.23
40954;BME280;26686;50.130;8.710;2023-05-20T20:42:30;100128.75;;;18.78;62.25
40954;BME280;26686;50.130;8.710;2023-05-20T20:47:32;100128.63;;;18.48;62.76
40954;BME280;26686;50.130;8.710;2023-05-20T20:52:34;100121.25;;;18.42;63.02
40954;BME280;26686;50.130;8.710;2023-05-20T20:57:36;100114.19;;;18.41;63.30
40954;BME280;26686;50.130;8.710;2023-05-20T21:02:38;100115.59;;;18.28;63.48
40954;BME280;26686;50.130;8.710;2023-05-20T21:07:39;100110.97;;;18.14;64.57
40954;BME280;26686;50.130;8.710;2023-05-20T21:12:44;100111.97;;;18.21;64.13
40954;BME280;26686;50.130;8.710;2023-05-20T21:17:46;100097.69;;;18.12;64.23
40954;BME280;26686;50.130;8.710;2023-05-20T21:22:48;100099.84;;;18.17;64.59
40954;BME280;26686;50.130;8.710;2023-05-20T21:27:49;100104.31;;;18.01;65.21
40954;BME280;26686;50.130;8.710;2023-05-20T21:32:51;100082.13;;;17.83;65.04
40954;BME280;26686;50.130;8.710;2023-05-20T21:37:53;100101.09;;;17.98;65.34
40954;BME280;26686;50.130;8.710;2023-05-20T21:42:54;100083.16;;;17.82;65.51
40954;BME280;26686;50.130;8.710;2023-05-20T21:47:56;100096.91;;;17.95;64.80
40954;BME280;26686;50.130;8.710;2023-05-20T21:52:57;100079.69;;;17.65;65.89
40954;BME280;26686;50.130;8.710;2023-05-20T21:57:59;100075.63;;;17.69;65.67
40954;BME280;26686;50.130;8.710;2023-05-20T22:03:00;100076.09;;;17.81;65.81
40954;BME280;26686;50.130;8.710;2023-05-20T22:08:02;100077.16;;;17.72;65.72
40954;BME280;26686;50.130;8.710;2023-05-20T22:13:03;100051.94;;;17.56;65.99
40954;BME280;26686;50.130;8.710;2023-05-20T22:18:05;100069.78;;;17.65;66.20
40954;BME280;26686;50.130;8.710;2023-05-20T22:23:08;100067.09;;;17.57;66.45
40954;BME280;26686;50.130;8.710;2023-05-20T22:28:09;100066.97;;;17.51;66.64
40954;BME280;26686;50.130;8.710;2023-05-20T22:33:11;100047.44;;;17.48;66.77
40954;BME280;26686;50.130;8.710;2023-05-20T22:38:13;100048.06;;;17.59;66.46
40954;BME280;26686;50.130;8.710;2023-05-20T22:43:14;100046.91;;;17.61;66.44
40954;BME280;26686;50.130;8.710;2023-05-20T22:48:16;100039.53;;;17.55;66.23
40954;BME280;26686;50.130;8.710;2023-05-20T22:53:19;100041.22;;;17.48;66.61
40954;BME280;26686;50.130;8.710;2023-05-20T22:58:20;100033.34;;;17.46;66.85
40954;BME280;26686;50.130;8.710;2023-05-20T23:03:22;100009.34;;;17.28;67.13
40954;BME280;26686;50.130;8.710;2023-05-20T23:08:24;100015.91;;;17.26;67.21
40954;BME280;26686;50.130;8.710;2023-05-20T23:13:26;100012.34;;;17.34;67.41
40954;BME280;26686;50.130;8.710;2023-05-20T23:18:28;100005.63;;;17.38;67.01
40954;BME280;26686;50.130;8.710;2023-05-20T23:23:29;100000.59;;;17.35;67.14
40954;BME280;26686;50.130;8.710;2023-05-20T23:28:32;100003.16;;;17.28;67.43
40954;BME280;26686;50.130;8.710;2023-05-20T23:33:35;99991.91;;;17.16;67.76
40954;BME280;26686;50.130;8.710;2023-05-20T23:38:39;99984.03;;;17.06;68.07
40954;BME280;26686;50.130;8.710;2023-05-20T23:43:40;99990.88;;;17.17;68.10
40954;BME280;26686;50.130;8.710;2023-05-20T23:48:43;99991.88;;;17.24;67.56
40954;BME280;26686;50.130;8.710;2023-05-20T23:53:45;99986.53;;;17.16;68.10
40954;BME280;26686;50.130;8.710;2023-05-20T23:58:47;99989.22;;;17.16;68.12
